createdAt,value
2022-10-30T00:00:31.007Z,79.48
2022-10-30T00:01:31.046Z,80.59
2022-10-30T00:02:31.037Z,79.58
2022-10-30T00:03:30.962Z,79.79
2022-10-30T00:04:30.956Z,79.88
2022-10-30T00:05:30.924Z,79.79
2022-10-30T00:06:30.916Z,79.68
2022-10-30T00:07:30.891Z,79.99
2022-10-30T00:08:30.888Z,80.69
2022-10-30T00:09:30.864Z,80.39
2022-10-30T00:10:30.879Z,80.08
2022-10-30T00:11:30.853Z,80.22
2022-10-30T00:12:30.839Z,80.79
2022-10-30T00:13:30.819Z,80.90
2022-10-30T00:14:30.804Z,81.13
2022-10-30T00:15:30.810Z,79.48
2022-10-30T00:16:30.814Z,79.28
2022-10-30T00:17:30.752Z,79.17
2022-10-30T00:18:30.756Z,79.14
2022-10-30T00:19:30.722Z,79.14
2022-10-30T00:20:30.718Z,79.58
2022-10-30T00:21:30.733Z,79.68
2022-10-30T00:22:30.723Z,79.79
2022-10-30T00:23:30.670Z,79.68
2022-10-30T00:24:30.668Z,79.68
2022-10-30T00:25:30.644Z,79.58
2022-10-30T00:26:30.639Z,79.24
2022-10-30T00:27:30.635Z,79.04
2022-10-30T00:28:30.625Z,79.04
2022-10-30T00:29:30.596Z,79.14
2022-10-30T00:30:30.601Z,79.54
2022-10-30T00:31:30.566Z,79.44
2022-10-30T00:32:30.564Z,79.58
2022-10-30T00:33:30.569Z,79.58
2022-10-30T00:34:30.525Z,79.79
2022-10-30T00:35:30.517Z,79.88
2022-10-30T00:36:30.518Z,79.88
2022-10-30T00:37:30.489Z,80.19
2022-10-30T00:38:30.481Z,79.99
2022-10-30T00:39:30.462Z,81.30
2022-10-30T00:40:30.471Z,81.10
2022-10-30T00:41:30.457Z,80.99
2022-10-30T00:42:30.436Z,80.79
2022-10-30T00:43:30.419Z,80.39
2022-10-30T00:44:30.395Z,80.08
2022-10-30T00:45:30.393Z,79.79
2022-10-30T00:46:30.367Z,79.48
2022-10-30T00:47:30.359Z,79.48
2022-10-30T00:48:30.362Z,79.48
2022-10-30T00:49:30.358Z,80.19
2022-10-30T00:50:30.333Z,79.99
2022-10-30T00:51:30.384Z,79.58
2022-10-30T00:52:30.297Z,79.88
2022-10-30T00:53:30.294Z,79.88
2022-10-30T00:54:30.266Z,79.24
2022-10-30T00:55:30.260Z,79.64
2022-10-30T00:56:30.243Z,79.54
2022-10-30T00:57:30.211Z,79.04
2022-10-30T00:58:30.234Z,79.34
2022-10-30T00:59:30.215Z,79.44
2022-10-30T01:00:30.356Z,80.25
2022-10-30T01:01:30.371Z,79.88
2022-10-30T01:02:30.272Z,79.88
2022-10-30T01:03:30.162Z,80.08
2022-10-30T01:04:30.541Z,80.49
2022-10-30T01:05:30.114Z,80.59
2022-10-30T01:06:30.129Z,80.49
2022-10-30T01:07:30.084Z,80.49
2022-10-30T01:08:30.124Z,80.79
2022-10-30T01:09:30.057Z,80.99
2022-10-30T01:10:30.053Z,80.90
2022-10-30T01:11:30.042Z,80.90
2022-10-30T01:12:30.043Z,81.34
2022-10-30T01:13:29.992Z,81.44
2022-10-30T01:14:30.001Z,81.64
2022-10-30T01:15:30.032Z,81.74
2022-10-30T01:16:29.963Z,81.54
2022-10-30T01:17:29.955Z,81.13
2022-10-30T01:18:29.939Z,81.03
2022-10-30T01:19:29.912Z,81.03
2022-10-30T01:20:29.921Z,81.03
2022-10-30T01:21:29.907Z,81.44
2022-10-30T01:22:29.895Z,81.44
2022-10-30T01:23:29.878Z,81.64
2022-10-30T01:24:29.845Z,81.84
2022-10-30T01:25:29.832Z,81.74
2022-10-30T01:26:29.823Z,81.34
2022-10-30T01:27:29.827Z,82.04
2022-10-30T01:28:29.808Z,81.54
2022-10-30T01:29:29.787Z,81.54
2022-10-30T01:30:29.795Z,81.64
2022-10-30T01:31:29.759Z,81.98
2022-10-30T01:32:29.764Z,82.28
2022-10-30T01:33:29.739Z,82.28
2022-10-30T01:34:29.747Z,82.28
2022-10-30T01:35:29.689Z,82.28
2022-10-30T01:36:29.731Z,82.18
2022-10-30T01:37:29.699Z,82.39
2022-10-30T01:38:29.658Z,81.68
2022-10-30T01:39:29.634Z,81.64
2022-10-30T01:40:29.655Z,82.04
2022-10-30T01:41:29.633Z,81.64
2022-10-30T01:42:29.594Z,81.44
2022-10-30T01:43:29.613Z,81.64
2022-10-30T01:44:29.572Z,81.84
2022-10-30T01:45:29.558Z,81.84
2022-10-30T01:46:29.545Z,81.54
2022-10-30T01:47:29.525Z,81.64
2022-10-30T01:48:29.527Z,81.54
2022-10-30T01:49:29.571Z,81.44
2022-10-30T01:50:29.510Z,81.64
2022-10-30T01:51:29.506Z,81.44
2022-10-30T01:52:29.464Z,81.44
2022-10-30T01:53:29.454Z,81.54
2022-10-30T01:54:29.440Z,81.13
2022-10-30T01:55:29.454Z,81.23
2022-10-30T01:56:29.422Z,80.83
2022-10-30T01:57:29.412Z,80.59
2022-10-30T01:58:29.402Z,80.83
2022-10-30T01:59:29.375Z,80.93
2022-10-30T02:00:29.367Z,80.73
2022-10-30T02:01:29.516Z,80.83
2022-10-30T02:02:29.435Z,80.43
2022-10-30T02:03:29.337Z,80.49
2022-10-30T02:04:29.300Z,80.59
2022-10-30T02:05:29.289Z,79.88
2022-10-30T02:06:29.467Z,79.38
2022-10-30T02:07:29.265Z,79.88
2022-10-30T02:08:29.282Z,80.08
2022-10-30T02:09:29.229Z,80.19
2022-10-30T02:10:29.248Z,80.39
2022-10-30T02:11:29.216Z,80.69
2022-10-30T02:12:29.259Z,80.22
2022-10-30T02:13:29.190Z,80.73
2022-10-30T02:14:29.159Z,81.13
2022-10-30T02:15:29.147Z,81.13
2022-10-30T02:16:29.147Z,81.44
2022-10-30T02:17:29.115Z,81.78
2022-10-30T02:18:29.123Z,81.88
2022-10-30T02:19:29.123Z,82.18
2022-10-30T02:20:29.098Z,82.62
2022-10-30T02:21:29.073Z,82.93
2022-10-30T02:22:29.159Z,83.13
2022-10-30T02:23:29.058Z,83.64
2022-10-30T02:24:29.044Z,83.88
2022-10-30T02:25:29.053Z,84.08
2022-10-30T02:26:29.006Z,84.28
2022-10-30T02:27:28.985Z,84.28
2022-10-30T02:28:28.988Z,84.28
2022-10-30T02:29:28.968Z,84.48
2022-10-30T02:30:28.962Z,84.79
2022-10-30T02:31:28.965Z,85.19
2022-10-30T02:32:28.922Z,85.03
2022-10-30T02:33:28.897Z,85.03
2022-10-30T02:34:28.894Z,85.33
2022-10-30T02:35:28.887Z,85.33
2022-10-30T02:36:28.867Z,85.54
2022-10-30T02:37:28.894Z,85.64
2022-10-30T02:38:28.856Z,85.68
2022-10-30T02:39:28.843Z,85.78
2022-10-30T02:40:28.808Z,85.78
2022-10-30T02:41:28.806Z,86.19
2022-10-30T02:42:28.790Z,86.29
2022-10-30T02:43:28.797Z,86.39
2022-10-30T02:44:28.761Z,86.39
2022-10-30T02:45:28.768Z,86.59
2022-10-30T02:46:28.736Z,87.00
2022-10-30T02:47:28.750Z,87.00
2022-10-30T02:48:28.707Z,87.20
2022-10-30T02:49:28.712Z,87.14
2022-10-30T02:50:28.690Z,87.24
2022-10-30T02:51:28.684Z,87.34
2022-10-30T02:52:28.646Z,87.65
2022-10-30T02:53:28.627Z,88.05
2022-10-30T02:54:28.622Z,88.05
2022-10-30T02:55:28.602Z,87.85
2022-10-30T02:56:28.631Z,87.99
2022-10-30T02:57:28.650Z,88.09
2022-10-30T02:58:28.573Z,87.89
2022-10-30T02:59:28.553Z,87.74
2022-10-30T03:00:28.554Z,87.85
2022-10-30T03:01:28.616Z,87.89
2022-10-30T03:02:28.513Z,87.99
2022-10-30T03:03:28.512Z,88.09
2022-10-30T03:04:28.486Z,88.09
2022-10-30T03:05:29.660Z,88.20
2022-10-30T03:06:28.476Z,88.49
2022-10-30T03:07:28.433Z,88.84
2022-10-30T03:08:28.430Z,88.95
2022-10-30T03:09:28.415Z,89.25
2022-10-30T03:10:28.399Z,89.86
2022-10-30T03:11:28.401Z,89.96
2022-10-30T03:12:28.432Z,89.96
2022-10-30T03:13:28.396Z,89.86
2022-10-30T03:14:28.345Z,89.96
2022-10-30T03:15:28.336Z,89.96
2022-10-30T03:16:28.344Z,89.96
2022-10-30T03:17:28.347Z,90.51
2022-10-30T03:18:28.296Z,90.61
2022-10-30T03:19:28.297Z,91.42
2022-10-30T03:20:28.282Z,91.42
2022-10-30T03:21:28.240Z,91.22
2022-10-30T03:22:28.255Z,91.22
2022-10-30T03:23:28.229Z,91.32
2022-10-30T03:24:28.214Z,91.42
2022-10-30T03:25:28.204Z,91.83
2022-10-30T03:26:28.176Z,92.03
2022-10-30T03:27:28.172Z,91.93
2022-10-30T03:28:28.163Z,91.63
2022-10-30T03:29:28.170Z,91.63
2022-10-30T03:30:28.139Z,91.52
2022-10-30T03:31:28.115Z,91.63
2022-10-30T03:32:28.109Z,91.73
2022-10-30T03:33:28.111Z,91.83
2022-10-30T03:34:28.073Z,91.77
2022-10-30T03:35:28.083Z,92.03
2022-10-30T03:36:28.037Z,92.33
2022-10-30T03:37:28.074Z,92.33
2022-10-30T03:38:28.010Z,92.33
2022-10-30T03:39:28.027Z,92.38
2022-10-30T03:40:28.010Z,92.38
2022-10-30T03:41:27.982Z,92.38
2022-10-30T03:42:27.980Z,92.38
2022-10-30T03:43:27.979Z,92.48
2022-10-30T03:44:27.929Z,92.99
2022-10-30T03:45:27.941Z,93.40
2022-10-30T03:46:27.943Z,93.40
2022-10-30T03:47:27.890Z,93.40
2022-10-30T03:48:27.891Z,93.33
2022-10-30T03:49:27.892Z,93.44
2022-10-30T03:50:27.900Z,93.64
2022-10-30T03:51:27.872Z,93.64
2022-10-30T03:53:26.779Z,93.84
2022-10-30T03:54:26.692Z,94.50
2022-10-30T03:55:26.658Z,94.50
2022-10-30T03:56:26.703Z,94.50
2022-10-30T03:57:26.679Z,94.60
2022-10-30T03:58:26.635Z,94.60
2022-10-30T03:59:26.639Z,94.95
2022-10-30T04:00:26.583Z,95.76
2022-10-30T04:01:26.673Z,95.76
2022-10-30T04:02:26.578Z,95.56
2022-10-30T04:03:26.589Z,95.66
2022-10-30T04:04:26.576Z,95.97
2022-10-30T04:05:26.574Z,96.27
2022-10-30T04:06:26.524Z,96.42
2022-10-30T04:07:26.547Z,96.42
2022-10-30T04:08:26.516Z,96.42
2022-10-30T04:09:26.469Z,96.31
2022-10-30T04:10:26.513Z,96.62
2022-10-30T04:11:26.474Z,96.83
2022-10-30T04:12:26.426Z,96.62
2022-10-30T04:13:26.435Z,96.62
2022-10-30T04:14:26.411Z,96.42
2022-10-30T04:15:26.379Z,96.31
2022-10-30T04:16:26.370Z,96.22
2022-10-30T04:17:26.377Z,96.11
2022-10-30T04:18:26.400Z,96.26
2022-10-30T04:19:26.347Z,96.26
2022-10-30T04:20:26.362Z,96.36
2022-10-30T04:21:26.349Z,96.87
2022-10-30T04:22:26.323Z,96.97
2022-10-30T04:23:26.302Z,96.81
2022-10-30T04:24:26.312Z,96.81
2022-10-30T04:25:26.233Z,97.83
2022-10-30T04:26:26.248Z,98.19
2022-10-30T04:27:26.230Z,98.09
2022-10-30T04:28:26.244Z,97.89
2022-10-30T04:29:26.191Z,97.58
2022-10-30T04:30:26.203Z,97.28
2022-10-30T04:31:26.161Z,97.17
2022-10-30T04:32:26.192Z,97.07
2022-10-30T04:33:26.153Z,97.32
2022-10-30T04:34:26.154Z,97.22
2022-10-30T04:35:26.101Z,97.32
2022-10-30T04:36:26.101Z,98.14
2022-10-30T04:37:26.073Z,98.34
2022-10-30T04:38:26.107Z,98.14
2022-10-30T04:39:26.071Z,98.03
2022-10-30T04:40:26.076Z,98.08
2022-10-30T04:41:26.018Z,98.08
2022-10-30T04:42:25.995Z,98.08
2022-10-30T04:43:25.992Z,98.18
2022-10-30T04:44:25.989Z,98.28
2022-10-30T04:45:25.992Z,98.64
2022-10-30T04:46:25.951Z,98.84
2022-10-30T04:47:26.020Z,98.74
2022-10-30T04:48:25.949Z,98.84
2022-10-30T04:49:25.922Z,98.74
2022-10-30T04:50:25.941Z,98.84
2022-10-30T04:51:25.888Z,99.04
2022-10-30T04:52:25.848Z,99.15
2022-10-30T04:53:25.896Z,99.15
2022-10-30T04:54:25.929Z,99.40
2022-10-30T04:55:25.807Z,99.50
2022-10-30T04:56:25.817Z,99.50
2022-10-30T04:57:25.890Z,99.50
2022-10-30T04:58:25.794Z,99.80
2022-10-30T04:59:25.759Z,99.70
2022-10-30T05:00:25.751Z,99.70
2022-10-30T05:01:25.841Z,99.99
2022-10-30T05:02:25.856Z,99.99
2022-10-30T05:03:25.751Z,99.99
2022-10-30T05:04:25.735Z,99.99
2022-10-30T05:05:25.735Z,99.99
2022-10-30T05:06:25.663Z,99.99
2022-10-30T05:07:25.643Z,99.99
2022-10-30T05:08:25.639Z,99.99
2022-10-30T05:09:25.640Z,99.99
2022-10-30T05:10:25.651Z,99.99
2022-10-30T05:11:25.604Z,99.99
2022-10-30T05:12:25.599Z,99.99
2022-10-30T05:13:25.556Z,99.99
2022-10-30T05:14:25.570Z,99.99
2022-10-30T05:15:25.512Z,99.99
2022-10-30T05:16:25.511Z,99.99
2022-10-30T05:17:25.559Z,99.99
2022-10-30T05:18:25.470Z,99.99
2022-10-30T05:19:25.483Z,99.99
2022-10-30T05:20:25.456Z,99.99
2022-10-30T05:21:25.439Z,99.99
2022-10-30T05:22:25.443Z,99.99
2022-10-30T05:23:25.436Z,99.99
2022-10-30T05:24:25.407Z,99.99
2022-10-30T05:25:25.396Z,99.99
2022-10-30T05:26:25.384Z,99.99
2022-10-30T05:27:25.335Z,99.99
2022-10-30T05:28:25.346Z,99.99
2022-10-30T05:29:25.316Z,99.99
2022-10-30T05:30:25.341Z,99.99
2022-10-30T05:31:25.314Z,99.99
2022-10-30T05:32:25.243Z,99.99
2022-10-30T05:33:25.288Z,99.99
2022-10-30T05:34:25.255Z,99.99
2022-10-30T05:35:25.298Z,99.99
2022-10-30T05:36:25.276Z,99.99
2022-10-30T05:41:16.213Z,99.99
2022-10-30T05:42:16.184Z,99.99
2022-10-30T05:43:16.186Z,99.99
2022-10-30T05:44:28.572Z,99.99
2022-10-30T05:45:17.105Z,99.99
2022-10-30T05:46:16.125Z,99.99
2022-10-30T05:47:16.092Z,99.99
2022-10-30T05:48:16.037Z,99.99
2022-10-30T05:49:16.018Z,99.99
2022-10-30T05:50:16.007Z,99.99
2022-10-30T05:51:16.047Z,99.99
2022-10-30T05:52:15.953Z,99.99
2022-10-30T05:53:16.051Z,99.99
2022-10-30T05:54:15.969Z,99.99
2022-10-30T05:55:15.919Z,99.99
2022-10-30T05:56:15.894Z,99.99
2022-10-30T05:57:15.900Z,99.99
2022-10-30T05:58:15.933Z,99.99
2022-10-30T05:59:15.872Z,99.99
2022-10-30T06:00:15.873Z,99.99
2022-10-30T06:01:15.908Z,99.99
2022-10-30T06:02:15.837Z,99.99
2022-10-30T06:03:15.837Z,99.99
2022-10-30T06:04:15.787Z,99.99
2022-10-30T06:05:15.850Z,99.99
2022-10-30T06:06:15.778Z,99.99
2022-10-30T06:07:15.803Z,99.99
2022-10-30T06:08:15.757Z,99.99
2022-10-30T06:09:15.720Z,99.99
2022-10-30T06:10:15.733Z,99.99
2022-10-30T06:11:15.722Z,99.99
2022-10-30T06:12:15.689Z,99.99
2022-10-30T06:13:15.703Z,99.99
2022-10-30T06:14:15.632Z,99.99
2022-10-30T06:15:15.667Z,99.99
2022-10-30T06:16:15.637Z,99.99
2022-10-30T06:17:15.607Z,99.99
2022-10-30T06:18:15.594Z,99.99
2022-10-30T06:19:18.873Z,99.99
2022-10-30T06:20:15.559Z,99.99
2022-10-30T06:21:15.587Z,99.99
2022-10-30T06:22:15.540Z,99.99
2022-10-30T06:23:15.528Z,99.99
2022-10-30T06:24:15.486Z,99.99
2022-10-30T06:25:15.534Z,99.99
2022-10-30T06:26:15.517Z,99.99
2022-10-30T06:27:15.487Z,99.99
2022-10-30T06:28:15.540Z,99.99
2022-10-30T06:29:15.444Z,99.99
2022-10-30T06:30:15.429Z,99.99
2022-10-30T06:31:15.529Z,99.99
2022-10-30T06:32:15.398Z,99.99
2022-10-30T06:33:15.407Z,99.99
2022-10-30T06:34:15.380Z,99.99
2022-10-30T06:35:15.345Z,99.99
2022-10-30T06:36:15.394Z,99.99
2022-10-30T06:37:15.386Z,99.99
2022-10-30T06:38:15.344Z,99.99
2022-10-30T06:39:15.283Z,99.99
2022-10-30T06:40:15.307Z,99.99
2022-10-30T06:41:15.277Z,99.99
2022-10-30T06:42:15.291Z,99.99
2022-10-30T06:43:15.249Z,99.99
2022-10-30T06:44:15.301Z,99.99
2022-10-30T06:45:15.191Z,99.99
2022-10-30T06:46:15.177Z,99.99
2022-10-30T06:47:15.239Z,99.99
2022-10-30T06:48:15.191Z,99.99
2022-10-30T06:49:15.172Z,99.99
2022-10-30T06:50:15.143Z,99.99
2022-10-30T06:51:15.177Z,99.99
2022-10-30T06:52:15.132Z,99.99
2022-10-30T06:53:15.145Z,99.99
2022-10-30T06:54:15.152Z,99.99
2022-10-30T06:55:15.056Z,99.99
2022-10-30T06:56:15.053Z,99.99
2022-10-30T06:57:15.071Z,99.99
2022-10-30T06:58:14.999Z,99.99
2022-10-30T06:59:15.002Z,99.99
2022-10-30T07:00:14.983Z,99.99
2022-10-30T07:01:15.052Z,99.99
2022-10-30T07:02:15.108Z,99.99
2022-10-30T07:03:14.990Z,99.99
2022-10-30T07:04:14.987Z,99.99
2022-10-30T07:05:14.989Z,99.99
2022-10-30T07:06:14.921Z,99.99
2022-10-30T07:07:14.928Z,99.99
2022-10-30T07:08:14.923Z,99.99
2022-10-30T07:09:14.926Z,99.99
2022-10-30T07:10:14.885Z,99.99
2022-10-30T07:11:14.891Z,99.99
2022-10-30T07:12:14.843Z,99.99
2022-10-30T07:13:14.843Z,99.99
2022-10-30T07:14:14.837Z,99.99
2022-10-30T07:15:14.827Z,99.99
2022-10-30T07:16:14.735Z,99.99
2022-10-30T07:17:14.764Z,99.99
2022-10-30T07:18:14.689Z,99.99
2022-10-30T07:19:14.803Z,99.99
2022-10-30T07:20:14.715Z,99.99
2022-10-30T07:21:14.782Z,99.99
2022-10-30T07:22:14.689Z,99.99
2022-10-30T07:23:14.690Z,99.99
2022-10-30T07:24:14.789Z,99.99
2022-10-30T07:25:14.640Z,99.99
2022-10-30T07:26:14.631Z,99.99
2022-10-30T07:27:14.611Z,99.99
2022-10-30T07:28:14.632Z,99.99
2022-10-30T07:29:14.580Z,99.99
2022-10-30T07:30:14.593Z,99.99
2022-10-30T07:31:20.124Z,99.99
2022-10-30T07:32:15.554Z,99.99
2022-10-30T07:33:14.531Z,99.99
2022-10-30T07:34:14.591Z,99.99
2022-10-30T07:35:14.603Z,99.99
2022-10-30T07:36:14.479Z,99.99
2022-10-30T07:37:14.477Z,99.99
2022-10-30T07:38:14.462Z,99.99
2022-10-30T07:39:14.437Z,99.99
2022-10-30T07:40:14.493Z,99.99
2022-10-30T07:41:14.394Z,99.99
2022-10-30T07:42:14.393Z,99.99
2022-10-30T07:43:14.425Z,99.99
2022-10-30T07:44:14.418Z,99.99
2022-10-30T07:45:14.384Z,99.99
2022-10-30T07:46:14.343Z,99.99
2022-10-30T07:47:14.274Z,99.99
2022-10-30T07:48:14.245Z,99.99
2022-10-30T07:49:14.294Z,99.99
2022-10-30T07:50:14.273Z,99.99
2022-10-30T07:51:14.239Z,99.99
2022-10-30T07:52:17.148Z,99.99
2022-10-30T07:53:14.198Z,99.07
2022-10-30T07:54:14.193Z,98.56
2022-10-30T07:55:14.206Z,98.77
2022-10-30T07:56:14.198Z,98.56
2022-10-30T07:57:14.200Z,98.82
2022-10-30T07:58:14.145Z,98.82
2022-10-30T07:59:14.139Z,98.68
2022-10-30T08:00:14.112Z,98.68
2022-10-30T08:01:14.268Z,98.57
2022-10-30T08:02:14.191Z,98.52
2022-10-30T08:03:14.082Z,98.22
2022-10-30T08:04:14.092Z,98.28
2022-10-30T08:05:14.059Z,98.07
2022-10-30T08:06:14.044Z,97.72
2022-10-30T08:07:14.064Z,98.03
2022-10-30T08:08:13.998Z,97.83
2022-10-30T08:09:14.042Z,97.98
2022-10-30T08:10:13.985Z,97.58
2022-10-30T08:11:14.041Z,97.02
2022-10-30T08:12:14.064Z,95.81
2022-10-30T08:13:13.974Z,94.95
2022-10-30T08:14:13.892Z,94.85
2022-10-30T08:15:13.888Z,93.74
2022-10-30T08:16:13.866Z,93.49
2022-10-30T08:17:13.864Z,91.16
2022-10-30T08:18:13.856Z,86.77
2022-10-30T08:19:13.844Z,86.53
2022-10-30T08:20:13.881Z,84.67
2022-10-30T08:21:13.839Z,82.91
2022-10-30T08:22:13.813Z,82.27
2022-10-30T08:23:13.932Z,82.03
2022-10-30T08:24:13.869Z,81.42
2022-10-30T08:25:14.044Z,80.88
2022-10-30T08:26:13.876Z,81.28
2022-10-30T08:27:13.791Z,80.07
2022-10-30T08:28:13.748Z,80.47
2022-10-30T08:29:13.734Z,79.23
2022-10-30T08:30:13.733Z,79.33
2022-10-30T08:31:13.690Z,78.72
2022-10-30T08:32:13.674Z,79.13
2022-10-30T08:33:13.634Z,78.32
2022-10-30T08:34:13.694Z,78.28
2022-10-30T08:35:18.688Z,77.88
2022-10-30T08:36:14.634Z,78.99
2022-10-30T08:37:13.636Z,78.35
2022-10-30T08:38:13.663Z,78.65
2022-10-30T08:39:13.585Z,79.05
2022-10-30T08:40:13.536Z,79.36
2022-10-30T08:41:13.556Z,79.96
2022-10-30T08:42:13.532Z,78.85
2022-10-30T08:43:13.480Z,79.36
2022-10-30T08:44:13.499Z,79.76
2022-10-30T08:45:13.506Z,79.76
2022-10-30T08:46:13.644Z,80.57
2022-10-30T08:47:13.493Z,78.25
2022-10-30T08:48:13.512Z,77.64
2022-10-30T08:49:13.494Z,78.15
2022-10-30T08:50:16.337Z,76.84
2022-10-30T08:51:13.377Z,76.90
2022-10-30T08:52:13.361Z,77.20
2022-10-30T08:53:13.354Z,78.01
2022-10-30T08:54:13.444Z,77.87
2022-10-30T08:55:13.314Z,77.11
2022-10-30T08:56:13.317Z,76.26
2022-10-30T08:57:13.316Z,76.36
2022-10-30T08:58:13.312Z,75.35
2022-10-30T08:59:17.258Z,76.36
2022-10-30T09:00:14.282Z,75.56
2022-10-30T09:01:13.396Z,75.66
2022-10-30T09:02:13.381Z,74.25
2022-10-30T09:08:12.671Z,75.68
2022-10-30T09:09:10.671Z,75.89
2022-10-30T09:10:10.652Z,74.98
2022-10-30T09:11:10.659Z,75.29
2022-10-30T09:12:12.839Z,73.78
2022-10-30T09:13:10.758Z,73.18
2022-10-30T09:14:10.638Z,73.47
2022-10-30T09:15:10.577Z,75.38
2022-10-30T09:16:10.556Z,72.97
2022-10-30T09:17:38.274Z,73.98
2022-10-30T09:19:21.275Z,73.04
2022-10-30T09:20:20.877Z,73.14
2022-10-30T09:21:20.865Z,74.95
2022-10-30T09:22:20.848Z,73.24
2022-10-30T09:23:20.784Z,72.84
2022-10-30T09:24:20.792Z,73.41
2022-10-30T09:25:21.063Z,73.41
2022-10-30T09:26:20.980Z,74.71
2022-10-30T09:27:21.541Z,73.41
2022-10-30T09:28:20.728Z,72.10
2022-10-30T09:29:20.724Z,72.10
2022-10-30T09:30:20.676Z,71.86
2022-10-30T09:31:20.684Z,72.67
2022-10-30T09:32:20.702Z,72.27
2022-10-30T09:33:20.675Z,73.07
2022-10-30T09:34:20.699Z,71.97
2022-10-30T09:35:20.672Z,72.87
2022-10-30T09:36:22.273Z,73.37
2022-10-30T09:37:20.577Z,73.77
2022-10-30T09:38:20.612Z,73.67
2022-10-30T09:39:20.578Z,74.18
2022-10-30T09:40:20.547Z,74.57
2022-10-30T09:41:21.274Z,73.17
2022-10-30T09:42:20.547Z,74.07
2022-10-30T09:43:20.572Z,75.04
2022-10-30T09:44:20.522Z,72.24
2022-10-30T09:45:29.276Z,72.24
2022-10-30T09:46:21.559Z,72.33
2022-10-30T09:47:23.375Z,72.33
2022-10-30T09:48:20.511Z,73.90
2022-10-30T09:49:20.549Z,71.09
2022-10-30T09:50:20.469Z,71.96
2022-10-30T09:51:20.495Z,71.56
2022-10-30T09:52:20.441Z,70.36
2022-10-30T09:53:20.407Z,70.26
2022-10-30T09:54:20.401Z,69.56
2022-10-30T09:55:20.381Z,70.66
2022-10-30T09:56:20.322Z,70.96
2022-10-30T09:57:20.332Z,69.73
2022-10-30T09:58:20.315Z,72.13
2022-10-30T09:59:20.344Z,72.13
2022-10-30T10:00:20.298Z,71.73
2022-10-30T10:01:20.547Z,69.82
2022-10-30T10:02:20.263Z,68.62
2022-10-30T10:03:20.484Z,70.39
2022-10-30T10:04:22.468Z,71.59
2022-10-30T10:05:21.206Z,71.69
2022-10-30T10:06:20.246Z,70.09
2022-10-30T10:07:20.206Z,70.19
2022-10-30T10:08:20.196Z,69.39
2022-10-30T10:09:20.193Z,69.32
2022-10-30T10:10:20.265Z,70.93
2022-10-30T10:11:20.104Z,70.83
2022-10-30T10:12:20.159Z,71.12
2022-10-30T10:13:20.100Z,69.82
2022-10-30T10:14:20.087Z,67.92
2022-10-30T10:15:20.131Z,68.02
2022-10-30T10:16:20.077Z,69.59
2022-10-30T10:17:20.072Z,67.29
2022-10-30T10:18:20.081Z,68.69
2022-10-30T10:19:20.026Z,68.66
2022-10-30T10:20:20.000Z,69.46
2022-10-30T10:21:20.050Z,68.55
2022-10-30T10:22:20.001Z,68.16
2022-10-30T10:23:19.972Z,67.36
2022-10-30T10:24:20.205Z,67.96
2022-10-30T10:25:19.937Z,67.96
2022-10-30T10:26:19.932Z,67.76
2022-10-30T10:27:19.913Z,67.96
2022-10-30T10:28:19.953Z,68.26
2022-10-30T10:29:19.884Z,68.13
2022-10-30T10:30:19.864Z,65.62
2022-10-30T10:31:19.962Z,67.13
2022-10-30T10:32:19.868Z,65.52
2022-10-30T10:33:19.868Z,66.25
2022-10-30T10:34:19.860Z,66.36
2022-10-30T10:35:19.815Z,67.16
2022-10-30T10:36:19.796Z,68.76
2022-10-30T10:37:19.767Z,66.82
2022-10-30T10:38:19.767Z,68.23
2022-10-30T10:39:19.766Z,67.19
2022-10-30T10:40:19.778Z,67.89
2022-10-30T10:41:19.777Z,66.89
2022-10-30T10:42:19.709Z,67.89
2022-10-30T10:43:19.688Z,66.59
2022-10-30T10:44:19.691Z,67.19
2022-10-30T10:45:19.659Z,66.89
2022-10-30T10:46:19.703Z,66.52
2022-10-30T10:47:19.641Z,68.82
2022-10-30T10:48:19.683Z,67.46
2022-10-30T10:49:19.621Z,69.06
2022-10-30T10:50:19.634Z,67.55
2022-10-30T10:51:19.601Z,67.46
2022-10-30T10:52:19.582Z,67.16
2022-10-30T10:53:19.557Z,67.86
2022-10-30T10:54:19.574Z,67.86
2022-10-30T10:55:19.555Z,68.16
2022-10-30T10:56:19.532Z,68.73
2022-10-30T10:57:19.524Z,66.13
2022-10-30T10:58:19.504Z,66.39
2022-10-30T10:59:19.466Z,66.99
2022-10-30T11:00:19.498Z,66.89
2022-10-30T11:01:19.523Z,66.89
2022-10-30T11:02:19.614Z,65.89
2022-10-30T11:03:19.478Z,65.99
2022-10-30T11:04:19.452Z,67.16
2022-10-30T11:05:19.430Z,66.56
2022-10-30T11:06:19.396Z,65.99
2022-10-30T11:07:19.408Z,66.29
2022-10-30T11:08:19.346Z,65.69
2022-10-30T11:09:19.347Z,66.99
2022-10-30T11:10:19.479Z,67.19
2022-10-30T11:11:19.339Z,66.99
2022-10-30T11:12:19.310Z,66.89
2022-10-30T11:13:19.309Z,66.29
2022-10-30T11:14:19.288Z,66.56
2022-10-30T11:15:19.260Z,67.06
2022-10-30T11:16:19.273Z,67.26
2022-10-30T11:17:19.317Z,67.66
2022-10-30T11:18:19.293Z,68.16
2022-10-30T11:19:19.287Z,66.66
2022-10-30T11:20:19.421Z,66.19
2022-10-30T11:21:19.205Z,65.79
2022-10-30T11:22:19.175Z,66.29
2022-10-30T11:23:19.165Z,66.29
2022-10-30T11:24:19.131Z,66.09
2022-10-30T11:25:19.134Z,65.36
2022-10-30T11:26:19.164Z,65.86
2022-10-30T11:27:19.146Z,65.76
2022-10-30T11:28:19.167Z,65.46
2022-10-30T11:29:19.117Z,65.56
2022-10-30T11:30:19.068Z,65.53
2022-10-30T11:31:19.203Z,64.83
2022-10-30T11:32:19.087Z,64.33
2022-10-30T11:33:19.019Z,64.53
2022-10-30T11:34:19.010Z,64.13
2022-10-30T11:35:19.149Z,65.03
2022-10-30T11:36:18.980Z,64.93
2022-10-30T11:37:18.960Z,64.93
2022-10-30T11:38:18.961Z,64.90
2022-10-30T11:39:20.659Z,66.09
2022-10-30T11:40:19.028Z,65.40
2022-10-30T11:41:18.921Z,63.80
2022-10-30T11:42:18.900Z,62.90
2022-10-30T11:43:18.892Z,64.70
2022-10-30T11:44:18.863Z,63.80
2022-10-30T11:45:18.906Z,64.10
2022-10-30T11:46:18.872Z,64.50
2022-10-30T11:47:18.847Z,65.40
2022-10-30T11:48:19.193Z,64.80
2022-10-30T11:49:18.875Z,64.30
2022-10-30T11:50:18.978Z,64.20
2022-10-30T11:51:18.851Z,64.30
2022-10-30T11:52:18.784Z,64.17
2022-10-30T11:53:18.765Z,64.17
2022-10-30T11:54:18.742Z,65.67
2022-10-30T11:55:18.739Z,66.47
2022-10-30T11:56:18.723Z,66.06
2022-10-30T11:57:18.696Z,65.87
2022-10-30T11:58:18.675Z,65.97
2022-10-30T11:59:18.686Z,63.90
2022-10-30T12:00:18.702Z,65.70
2022-10-30T12:01:18.705Z,65.80
2022-10-30T12:02:18.764Z,64.60
2022-10-30T12:03:18.630Z,65.50
2022-10-30T12:04:18.609Z,64.80
2022-10-30T12:05:18.601Z,63.80
2022-10-30T12:06:18.625Z,65.20
2022-10-30T12:07:18.593Z,65.40
2022-10-30T12:08:18.574Z,66.09
2022-10-30T12:09:18.532Z,66.60
2022-10-30T12:10:18.546Z,66.73
2022-10-30T12:11:18.490Z,66.73
2022-10-30T12:12:18.541Z,65.23
2022-10-30T12:13:18.511Z,64.96
2022-10-30T12:14:18.464Z,65.36
2022-10-30T12:15:18.465Z,64.66
2022-10-30T12:16:18.445Z,65.43
2022-10-30T12:17:18.456Z,64.56
2022-10-30T12:18:18.478Z,67.03
2022-10-30T12:19:18.456Z,64.93
2022-10-30T12:20:18.386Z,64.66
2022-10-30T12:21:18.377Z,64.26
2022-10-30T12:22:18.387Z,64.86
2022-10-30T12:23:18.388Z,64.46
2022-10-30T12:24:18.354Z,65.66
2022-10-30T12:25:18.318Z,65.23
2022-10-30T12:26:18.298Z,65.26
2022-10-30T12:27:21.550Z,65.13
2022-10-30T12:28:18.291Z,64.73
2022-10-30T12:29:18.255Z,64.73
2022-10-30T12:30:18.269Z,64.63
2022-10-30T12:31:18.245Z,64.83
2022-10-30T12:32:18.251Z,65.73
2022-10-30T12:33:18.221Z,66.33
2022-10-30T12:34:18.211Z,65.73
2022-10-30T12:35:18.191Z,66.50
2022-10-30T12:36:18.171Z,66.33
2022-10-30T12:37:18.143Z,66.43
2022-10-30T12:38:18.145Z,65.73
2022-10-30T12:39:18.146Z,68.03
2022-10-30T12:40:18.144Z,67.53
2022-10-30T12:41:18.115Z,66.33
2022-10-30T12:42:18.114Z,66.03
2022-10-30T12:43:18.077Z,65.83
2022-10-30T12:44:18.079Z,66.03
2022-10-30T12:45:18.055Z,64.93
2022-10-30T12:46:18.030Z,66.13
2022-10-30T12:47:18.028Z,66.33
2022-10-30T12:48:17.988Z,66.43
2022-10-30T12:49:17.986Z,65.83
2022-10-30T12:50:18.113Z,66.13
2022-10-30T12:51:21.240Z,65.93
2022-10-30T12:52:18.976Z,66.43
2022-10-30T12:53:17.929Z,65.93
2022-10-30T12:54:17.919Z,64.83
2022-10-30T12:55:17.937Z,64.63
2022-10-30T12:56:17.880Z,64.90
2022-10-30T12:57:17.882Z,65.00
2022-10-30T12:58:17.861Z,66.80
2022-10-30T12:59:17.831Z,66.89
2022-10-30T13:00:17.823Z,67.80
2022-10-30T13:01:17.958Z,65.50
2022-10-30T13:02:17.912Z,66.60
2022-10-30T13:03:17.809Z,66.60